sensor_id;sensor_type;location;lat;lon;timestamp;P1;durP1;ratioP1;P2;durP2;ratioP2
20792;SDS011;10556;-33.662;151.094;2023-09-30T00:02:00;8.37;;;6.20;;
20792;SDS011;10556;-33.662;151.094;2023-09-30T00:07:03;8.43;;;5.70;;
20792;SDS011;10556;-33.662;151.094;2023-09-30T00:12:05;7.63;;;5.00;;
20792;SDS011;10556;-33.662;151.094;2023-09-30T00:17:06;6.33;;;5.20;;
20792;SDS011;10556;-33.662;151.094;2023-09-30T00:22:09;6.37;;;4.50;;
20792;SDS011;10556;-33.662;151.094;2023-09-30T00:27:10;6.33;;;4.60;;
20792;SDS011;10556;-33.662;151.094;2023-09-30T00:32:11;7.20;;;5.07;;
20792;SDS011;10556;-33.662;151.094;2023-09-30T00:37:14;4.90;;;4.27;;
20792;SDS011;10556;-33.662;151.094;2023-09-30T00:42:16;7.33;;;4.70;;
20792;SDS011;10556;-33.662;151.094;2023-09-30T00:47:17;7.90;;;4.77;;
20792;SDS011;10556;-33.662;151.094;2023-09-30T00:52:20;7.73;;;5.40;;
20792;SDS011;10556;-33.662;151.094;2023-09-30T00:57:21;5.00;;;4.30;;
20792;SDS011;10556;-33.662;151.094;2023-09-30T01:02:23;7.87;;;5.50;;
20792;SDS011;10556;-33.662;151.094;2023-09-30T01:07:26;7.40;;;5.07;;
20792;SDS011;10556;-33.662;151.094;2023-09-30T01:12:27;6.53;;;4.73;;
20792;SDS011;10556;-33.662;151.094;2023-09-30T01:17:28;5.80;;;5.00;;
20792;SDS011;10556;-33.662;151.094;2023-09-30T01:22:32;6.37;;;5.03;;
20792;SDS011;10556;-33.662;151.094;2023-09-30T01:27:33;6.77;;;5.33;;
20792;SDS011;10556;-33.662;151.094;2023-09-30T01:32:34;6.67;;;5.43;;
20792;SDS011;10556;-33.662;151.094;2023-09-30T01:37:38;9.90;;;5.43;;
20792;SDS011;10556;-33.662;151.094;2023-09-30T01:42:39;8.33;;;5.50;;
20792;SDS011;10556;-33.662;151.094;2023-09-30T01:47:40;7.43;;;5.05;;
20792;SDS011;10556;-33.662;151.094;2023-09-30T01:52:43;9.63;;;5.63;;
20792;SDS011;10556;-33.662;151.094;2023-09-30T01:57:45;6.47;;;5.13;;
20792;SDS011;10556;-33.662;151.094;2023-09-30T02:02:46;8.60;;;5.50;;
20792;SDS011;10556;-33.662;151.094;2023-09-30T02:07:49;6.75;;;4.55;;
20792;SDS011;10556;-33.662;151.094;2023-09-30T02:12:50;7.90;;;4.93;;
20792;SDS011;10556;-33.662;151.094;2023-09-30T02:17:51;7.95;;;4.65;;
20792;SDS011;10556;-33.662;151.094;2023-09-30T02:22:55;4.93;;;3.90;;
20792;SDS011;10556;-33.662;151.094;2023-09-30T02:27:56;5.35;;;4.20;;
20792;SDS011;10556;-33.662;151.094;2023-09-30T02:32:57;7.65;;;4.25;;
20792;SDS011;10556;-33.662;151.094;2023-09-30T02:38:00;5.13;;;3.55;;
20792;SDS011;10556;-33.662;151.094;2023-09-30T02:43:01;4.53;;;3.70;;
20792;SDS011;10556;-33.662;151.094;2023-09-30T02:48:03;4.50;;;3.70;;
20792;SDS011;10556;-33.662;151.094;2023-09-30T02:53:06;11.00;;;4.57;;
20792;SDS011;10556;-33.662;151.094;2023-09-30T02:58:07;5.25;;;4.03;;
20792;SDS011;10556;-33.662;151.094;2023-09-30T03:03:09;5.70;;;3.85;;
20792;SDS011;10556;-33.662;151.094;2023-09-30T03:08:12;4.93;;;3.65;;
20792;SDS011;10556;-33.662;151.094;2023-09-30T03:13:13;4.95;;;3.00;;
20792;SDS011;10556;-33.662;151.094;2023-09-30T03:18:14;4.22;;;2.60;;
20792;SDS011;10556;-33.662;151.094;2023-09-30T03:23:17;3.67;;;3.17;;
20792;SDS011;10556;-33.662;151.094;2023-09-30T03:28:18;3.20;;;2.90;;
20792;SDS011;10556;-33.662;151.094;2023-09-30T03:33:20;4.85;;;3.70;;
20792;SDS011;10556;-33.662;151.094;2023-09-30T03:38:23;3.53;;;2.70;;
20792;SDS011;10556;-33.662;151.094;2023-09-30T03:43:24;4.38;;;2.88;;
20792;SDS011;10556;-33.662;151.094;2023-09-30T03:48:26;5.95;;;3.03;;
20792;SDS011;10556;-33.662;151.094;2023-09-30T03:53:29;2.88;;;2.15;;
20792;SDS011;10556;-33.662;151.094;2023-09-30T03:58:30;4.30;;;3.00;;
20792;SDS011;10556;-33.662;151.094;2023-09-30T04:03:31;4.40;;;3.33;;
20792;SDS011;10556;-33.662;151.094;2023-09-30T04:08:34;6.60;;;3.13;;
20792;SDS011;10556;-33.662;151.094;2023-09-30T04:13:36;3.90;;;2.95;;
20792;SDS011;10556;-33.662;151.094;2023-09-30T04:18:37;6.70;;;2.92;;
20792;SDS011;10556;-33.662;151.094;2023-09-30T04:23:40;3.85;;;2.53;;
20792;SDS011;10556;-33.662;151.094;2023-09-30T04:28:41;5.65;;;3.10;;
20792;SDS011;10556;-33.662;151.094;2023-09-30T04:33:43;6.10;;;3.47;;
20792;SDS011;10556;-33.662;151.094;2023-09-30T04:38:46;8.80;;;3.33;;
20792;SDS011;10556;-33.662;151.094;2023-09-30T04:43:47;3.88;;;2.67;;
20792;SDS011;10556;-33.662;151.094;2023-09-30T04:48:48;5.93;;;2.80;;
20792;SDS011;10556;-33.662;151.094;2023-09-30T04:53:51;3.97;;;3.03;;
20792;SDS011;10556;-33.662;151.094;2023-09-30T04:58:52;7.78;;;2.97;;
20792;SDS011;10556;-33.662;151.094;2023-09-30T05:03:54;3.80;;;2.67;;
20792;SDS011;10556;-33.662;151.094;2023-09-30T05:08:57;5.82;;;2.90;;
20792;SDS011;10556;-33.662;151.094;2023-09-30T05:13:58;4.13;;;2.78;;
20792;SDS011;10556;-33.662;151.094;2023-09-30T05:18:59;4.57;;;2.30;;
20792;SDS011;10556;-33.662;151.094;2023-09-30T05:24:02;4.38;;;2.67;;
20792;SDS011;10556;-33.662;151.094;2023-09-30T05:29:04;4.15;;;2.08;;
20792;SDS011;10556;-33.662;151.094;2023-09-30T05:34:05;7.32;;;2.72;;
20792;SDS011;10556;-33.662;151.094;2023-09-30T05:39:08;7.90;;;3.40;;
20792;SDS011;10556;-33.662;151.094;2023-09-30T05:44:09;6.53;;;3.30;;
20792;SDS011;10556;-33.662;151.094;2023-09-30T05:49:10;6.90;;;3.70;;
20792;SDS011;10556;-33.662;151.094;2023-09-30T05:54:13;5.78;;;2.72;;
20792;SDS011;10556;-33.662;151.094;2023-09-30T05:59:15;7.68;;;2.92;;
20792;SDS011;10556;-33.662;151.094;2023-09-30T06:04:16;9.50;;;2.80;;
20792;SDS011;10556;-33.662;151.094;2023-09-30T06:09:19;5.82;;;2.50;;
20792;SDS011;10556;-33.662;151.094;2023-09-30T06:14:20;6.97;;;2.47;;
20792;SDS011;10556;-33.662;151.094;2023-09-30T06:19:21;6.57;;;2.70;;
20792;SDS011;10556;-33.662;151.094;2023-09-30T06:24:24;7.80;;;2.45;;
20792;SDS011;10556;-33.662;151.094;2023-09-30T06:29:26;6.50;;;2.30;;
20792;SDS011;10556;-33.662;151.094;2023-09-30T06:34:27;4.37;;;2.23;;
20792;SDS011;10556;-33.662;151.094;2023-09-30T06:39:30;4.68;;;2.33;;
20792;SDS011;10556;-33.662;151.094;2023-09-30T06:44:31;5.33;;;1.97;;
20792;SDS011;10556;-33.662;151.094;2023-09-30T06:49:34;6.50;;;2.70;;
20792;SDS011;10556;-33.662;151.094;2023-09-30T06:54:37;7.17;;;2.20;;
20792;SDS011;10556;-33.662;151.094;2023-09-30T06:59:38;5.27;;;3.00;;
20792;SDS011;10556;-33.662;151.094;2023-09-30T07:04:39;4.97;;;2.37;;
20792;SDS011;10556;-33.662;151.094;2023-09-30T07:09:42;4.67;;;2.27;;
20792;SDS011;10556;-33.662;151.094;2023-09-30T07:14:43;3.13;;;2.10;;
20792;SDS011;10556;-33.662;151.094;2023-09-30T07:19:44;5.40;;;2.27;;
20792;SDS011;10556;-33.662;151.094;2023-09-30T07:24:48;4.57;;;2.30;;
20792;SDS011;10556;-33.662;151.094;2023-09-30T07:29:49;5.83;;;2.60;;
20792;SDS011;10556;-33.662;151.094;2023-09-30T07:34:50;5.30;;;2.23;;
20792;SDS011;10556;-33.662;151.094;2023-09-30T07:39:53;8.47;;;2.73;;
20792;SDS011;10556;-33.662;151.094;2023-09-30T07:44:55;7.03;;;2.83;;
20792;SDS011;10556;-33.662;151.094;2023-09-30T07:49:56;6.03;;;2.63;;
20792;SDS011;10556;-33.662;151.094;2023-09-30T07:54:59;3.43;;;1.80;;
20792;SDS011;10556;-33.662;151.094;2023-09-30T08:00:00;7.40;;;2.70;;
20792;SDS011;10556;-33.662;151.094;2023-09-30T08:05:01;6.73;;;2.40;;
20792;SDS011;10556;-33.662;151.094;2023-09-30T08:10:06;10.03;;;2.83;;
20792;SDS011;10556;-33.662;151.094;2023-09-30T08:15:08;4.83;;;2.00;;
20792;SDS011;10556;-33.662;151.094;2023-09-30T08:20:09;12.53;;;2.83;;
20792;SDS011;10556;-33.662;151.094;2023-09-30T08:25:12;4.30;;;2.17;;
20792;SDS011;10556;-33.662;151.094;2023-09-30T08:30:13;6.60;;;2.63;;
20792;SDS011;10556;-33.662;151.094;2023-09-30T08:35:15;10.87;;;2.53;;
20792;SDS011;10556;-33.662;151.094;2023-09-30T08:40:21;9.93;;;2.60;;
20792;SDS011;10556;-33.662;151.094;2023-09-30T08:45:22;9.83;;;2.50;;
20792;SDS011;10556;-33.662;151.094;2023-09-30T08:50:24;10.50;;;2.50;;
20792;SDS011;10556;-33.662;151.094;2023-09-30T08:55:27;7.13;;;2.23;;
20792;SDS011;10556;-33.662;151.094;2023-09-30T09:00:29;5.03;;;2.27;;
20792;SDS011;10556;-33.662;151.094;2023-09-30T09:05:30;7.17;;;2.00;;
20792;SDS011;10556;-33.662;151.094;2023-09-30T09:10:33;5.97;;;2.00;;
20792;SDS011;10556;-33.662;151.094;2023-09-30T09:15:34;9.60;;;2.10;;
20792;SDS011;10556;-33.662;151.094;2023-09-30T09:20:35;6.23;;;2.00;;
20792;SDS011;10556;-33.662;151.094;2023-09-30T09:25:39;10.00;;;1.93;;
20792;SDS011;10556;-33.662;151.094;2023-09-30T09:30:41;7.80;;;2.17;;
20792;SDS011;10556;-33.662;151.094;2023-09-30T09:35:42;7.73;;;1.70;;
20792;SDS011;10556;-33.662;151.094;2023-09-30T09:40:50;5.23;;;1.63;;
20792;SDS011;10556;-33.662;151.094;2023-09-30T09:45:52;7.03;;;1.70;;
20792;SDS011;10556;-33.662;151.094;2023-09-30T09:50:53;4.07;;;1.40;;
20792;SDS011;10556;-33.662;151.094;2023-09-30T09:55:56;6.40;;;1.77;;
20792;SDS011;10556;-33.662;151.094;2023-09-30T10:00:59;5.50;;;1.50;;
20792;SDS011;10556;-33.662;151.094;2023-09-30T10:06:00;3.17;;;1.30;;
20792;SDS011;10556;-33.662;151.094;2023-09-30T10:11:03;2.13;;;1.23;;
20792;SDS011;10556;-33.662;151.094;2023-09-30T10:16:05;2.70;;;1.10;;
20792;SDS011;10556;-33.662;151.094;2023-09-30T10:21:07;2.03;;;1.20;;
20792;SDS011;10556;-33.662;151.094;2023-09-30T10:26:16;2.60;;;1.10;;
20792;SDS011;10556;-33.662;151.094;2023-09-30T10:31:18;1.77;;;0.97;;
20792;SDS011;10556;-33.662;151.094;2023-09-30T10:36:25;6.33;;;1.50;;
20792;SDS011;10556;-33.662;151.094;2023-09-30T10:46:47;4.10;;;1.40;;
20792;SDS011;10556;-33.662;151.094;2023-09-30T10:51:49;2.80;;;1.23;;
20792;SDS011;10556;-33.662;151.094;2023-09-30T10:56:53;6.10;;;1.70;;
20792;SDS011;10556;-33.662;151.094;2023-09-30T11:01:56;5.47;;;1.43;;
20792;SDS011;10556;-33.662;151.094;2023-09-30T11:06:57;4.20;;;1.40;;
20792;SDS011;10556;-33.662;151.094;2023-09-30T11:12:00;4.47;;;1.10;;
20792;SDS011;10556;-33.662;151.094;2023-09-30T11:17:03;2.63;;;1.10;;
20792;SDS011;10556;-33.662;151.094;2023-09-30T11:22:04;4.33;;;1.57;;
20792;SDS011;10556;-33.662;151.094;2023-09-30T11:27:05;4.23;;;1.20;;
20792;SDS011;10556;-33.662;151.094;2023-09-30T11:32:08;4.50;;;1.60;;
20792;SDS011;10556;-33.662;151.094;2023-09-30T11:37:09;4.10;;;1.43;;
20792;SDS011;10556;-33.662;151.094;2023-09-30T11:42:14;5.00;;;1.33;;
20792;SDS011;10556;-33.662;151.094;2023-09-30T11:47:23;3.53;;;1.33;;
20792;SDS011;10556;-33.662;151.094;2023-09-30T11:52:29;4.07;;;1.13;;
20792;SDS011;10556;-33.662;151.094;2023-09-30T11:57:30;3.10;;;1.57;;
20792;SDS011;10556;-33.662;151.094;2023-09-30T12:02:33;2.10;;;1.00;;
20792;SDS011;10556;-33.662;151.094;2023-09-30T12:07:34;2.63;;;1.30;;
20792;SDS011;10556;-33.662;151.094;2023-09-30T12:12:35;1.33;;;0.90;;
20792;SDS011;10556;-33.662;151.094;2023-09-30T12:17:38;1.80;;;0.80;;
20792;SDS011;10556;-33.662;151.094;2023-09-30T12:22:40;2.53;;;1.03;;
20792;SDS011;10556;-33.662;151.094;2023-09-30T12:27:41;2.40;;;1.10;;
20792;SDS011;10556;-33.662;151.094;2023-09-30T12:32:44;1.70;;;0.87;;
20792;SDS011;10556;-33.662;151.094;2023-09-30T12:37:45;1.87;;;0.90;;
20792;SDS011;10556;-33.662;151.094;2023-09-30T12:42:47;2.13;;;0.83;;
20792;SDS011;10556;-33.662;151.094;2023-09-30T12:47:50;3.13;;;0.87;;
20792;SDS011;10556;-33.662;151.094;2023-09-30T12:52:51;0.83;;;0.70;;
20792;SDS011;10556;-33.662;151.094;2023-09-30T12:57:52;1.10;;;0.60;;
20792;SDS011;10556;-33.662;151.094;2023-09-30T13:02:55;1.40;;;0.97;;
20792;SDS011;10556;-33.662;151.094;2023-09-30T13:07:56;1.73;;;0.90;;
20792;SDS011;10556;-33.662;151.094;2023-09-30T13:12:58;2.80;;;1.10;;
20792;SDS011;10556;-33.662;151.094;2023-09-30T13:18:01;1.50;;;0.80;;
20792;SDS011;10556;-33.662;151.094;2023-09-30T13:23:02;1.87;;;1.00;;
20792;SDS011;10556;-33.662;151.094;2023-09-30T13:28:03;1.60;;;1.20;;
20792;SDS011;10556;-33.662;151.094;2023-09-30T13:33:06;1.97;;;1.00;;
20792;SDS011;10556;-33.662;151.094;2023-09-30T13:38:08;2.47;;;0.90;;
20792;SDS011;10556;-33.662;151.094;2023-09-30T13:43:09;2.00;;;1.17;;
20792;SDS011;10556;-33.662;151.094;2023-09-30T13:48:12;2.13;;;1.10;;
20792;SDS011;10556;-33.662;151.094;2023-09-30T13:53:13;3.10;;;1.20;;
20792;SDS011;10556;-33.662;151.094;2023-09-30T13:58:14;5.03;;;1.57;;
20792;SDS011;10556;-33.662;151.094;2023-09-30T14:03:17;2.27;;;1.30;;
20792;SDS011;10556;-33.662;151.094;2023-09-30T14:08:19;1.80;;;1.07;;
20792;SDS011;10556;-33.662;151.094;2023-09-30T14:13:20;2.90;;;1.20;;
20792;SDS011;10556;-33.662;151.094;2023-09-30T14:18:23;3.17;;;1.00;;
20792;SDS011;10556;-33.662;151.094;2023-09-30T14:23:24;1.07;;;0.83;;
20792;SDS011;10556;-33.662;151.094;2023-09-30T14:28:25;1.77;;;0.90;;
20792;SDS011;10556;-33.662;151.094;2023-09-30T14:33:29;1.63;;;0.90;;
20792;SDS011;10556;-33.662;151.094;2023-09-30T14:38:30;1.20;;;0.80;;
20792;SDS011;10556;-33.662;151.094;2023-09-30T14:43:31;2.90;;;1.17;;
20792;SDS011;10556;-33.662;151.094;2023-09-30T14:48:34;2.50;;;1.00;;
20792;SDS011;10556;-33.662;151.094;2023-09-30T14:53:35;2.03;;;1.07;;
20792;SDS011;10556;-33.662;151.094;2023-09-30T14:58:37;3.07;;;1.37;;
20792;SDS011;10556;-33.662;151.094;2023-09-30T15:03:40;1.70;;;1.00;;
20792;SDS011;10556;-33.662;151.094;2023-09-30T15:08:41;1.30;;;0.80;;
20792;SDS011;10556;-33.662;151.094;2023-09-30T15:13:42;1.60;;;1.13;;
20792;SDS011;10556;-33.662;151.094;2023-09-30T15:18:45;2.90;;;0.80;;
20792;SDS011;10556;-33.662;151.094;2023-09-30T15:23:46;2.20;;;1.10;;
20792;SDS011;10556;-33.662;151.094;2023-09-30T15:28:47;1.17;;;0.93;;
20792;SDS011;10556;-33.662;151.094;2023-09-30T15:33:51;2.30;;;1.10;;
20792;SDS011;10556;-33.662;151.094;2023-09-30T15:38:52;2.33;;;0.80;;
20792;SDS011;10556;-33.662;151.094;2023-09-30T15:43:53;1.23;;;0.70;;
20792;SDS011;10556;-33.662;151.094;2023-09-30T15:49:00;2.47;;;1.10;;
20792;SDS011;10556;-33.662;151.094;2023-09-30T15:54:01;1.17;;;0.97;;
20792;SDS011;10556;-33.662;151.094;2023-09-30T15:59:03;2.37;;;1.00;;
20792;SDS011;10556;-33.662;151.094;2023-09-30T16:04:06;3.80;;;1.53;;
20792;SDS011;10556;-33.662;151.094;2023-09-30T16:09:07;2.43;;;1.10;;
20792;SDS011;10556;-33.662;151.094;2023-09-30T16:14:08;2.03;;;1.10;;
20792;SDS011;10556;-33.662;151.094;2023-09-30T16:19:12;2.40;;;1.43;;
20792;SDS011;10556;-33.662;151.094;2023-09-30T16:24:13;1.90;;;1.23;;
20792;SDS011;10556;-33.662;151.094;2023-09-30T16:29:14;1.73;;;1.00;;
20792;SDS011;10556;-33.662;151.094;2023-09-30T16:34:17;1.57;;;0.93;;
20792;SDS011;10556;-33.662;151.094;2023-09-30T16:39:18;1.53;;;1.10;;
20792;SDS011;10556;-33.662;151.094;2023-09-30T16:44:20;2.30;;;0.97;;
20792;SDS011;10556;-33.662;151.094;2023-09-30T16:49:23;2.03;;;1.20;;
20792;SDS011;10556;-33.662;151.094;2023-09-30T16:54:24;2.03;;;1.07;;
20792;SDS011;10556;-33.662;151.094;2023-09-30T16:59:28;1.67;;;0.93;;
20792;SDS011;10556;-33.662;151.094;2023-09-30T17:04:31;3.47;;;1.10;;
20792;SDS011;10556;-33.662;151.094;2023-09-30T17:09:33;1.10;;;0.80;;
20792;SDS011;10556;-33.662;151.094;2023-09-30T17:14:34;2.10;;;1.10;;
20792;SDS011;10556;-33.662;151.094;2023-09-30T17:19:37;1.30;;;0.90;;
20792;SDS011;10556;-33.662;151.094;2023-09-30T17:24:38;1.80;;;1.40;;
20792;SDS011;10556;-33.662;151.094;2023-09-30T17:29:39;1.73;;;1.00;;
20792;SDS011;10556;-33.662;151.094;2023-09-30T17:34:43;1.37;;;0.90;;
20792;SDS011;10556;-33.662;151.094;2023-09-30T17:39:44;2.70;;;0.90;;
20792;SDS011;10556;-33.662;151.094;2023-09-30T17:44:45;1.57;;;0.90;;
20792;SDS011;10556;-33.662;151.094;2023-09-30T17:49:48;1.10;;;0.90;;
20792;SDS011;10556;-33.662;151.094;2023-09-30T17:54:49;1.20;;;0.80;;
20792;SDS011;10556;-33.662;151.094;2023-09-30T17:59:50;2.40;;;1.37;;
20792;SDS011;10556;-33.662;151.094;2023-09-30T18:04:54;1.57;;;0.93;;
20792;SDS011;10556;-33.662;151.094;2023-09-30T18:09:55;1.10;;;1.00;;
20792;SDS011;10556;-33.662;151.094;2023-09-30T18:14:56;1.70;;;0.93;;
20792;SDS011;10556;-33.662;151.094;2023-09-30T18:19:59;2.13;;;0.80;;
20792;SDS011;10556;-33.662;151.094;2023-09-30T18:25:00;1.23;;;0.90;;
20792;SDS011;10556;-33.662;151.094;2023-09-30T18:30:02;2.07;;;1.10;;
20792;SDS011;10556;-33.662;151.094;2023-09-30T18:35:06;1.77;;;0.90;;
20792;SDS011;10556;-33.662;151.094;2023-09-30T18:40:07;1.87;;;0.93;;
20792;SDS011;10556;-33.662;151.094;2023-09-30T18:45:09;0.77;;;0.73;;
20792;SDS011;10556;-33.662;151.094;2023-09-30T18:50:12;1.77;;;0.80;;
20792;SDS011;10556;-33.662;151.094;2023-09-30T18:55:13;1.53;;;1.10;;
20792;SDS011;10556;-33.662;151.094;2023-09-30T19:00:15;1.80;;;0.90;;
20792;SDS011;10556;-33.662;151.094;2023-09-30T19:05:18;1.90;;;0.90;;
20792;SDS011;10556;-33.662;151.094;2023-09-30T19:10:19;0.80;;;0.70;;
20792;SDS011;10556;-33.662;151.094;2023-09-30T19:15:21;1.03;;;0.70;;
20792;SDS011;10556;-33.662;151.094;2023-09-30T19:20:24;1.63;;;0.50;;
20792;SDS011;10556;-33.662;151.094;2023-09-30T19:25:25;1.00;;;0.80;;
20792;SDS011;10556;-33.662;151.094;2023-09-30T19:30:26;0.93;;;0.80;;
20792;SDS011;10556;-33.662;151.094;2023-09-30T19:35:29;0.80;;;0.60;;
20792;SDS011;10556;-33.662;151.094;2023-09-30T19:40:31;1.80;;;0.90;;
20792;SDS011;10556;-33.662;151.094;2023-09-30T19:45:32;1.47;;;0.90;;
20792;SDS011;10556;-33.662;151.094;2023-09-30T19:50:35;1.70;;;0.90;;
20792;SDS011;10556;-33.662;151.094;2023-09-30T19:55:36;2.53;;;0.67;;
20792;SDS011;10556;-33.662;151.094;2023-09-30T20:00:38;1.40;;;0.50;;
20792;SDS011;10556;-33.662;151.094;2023-09-30T20:05:41;1.00;;;0.70;;
20792;SDS011;10556;-33.662;151.094;2023-09-30T20:10:42;2.00;;;0.87;;
20792;SDS011;10556;-33.662;151.094;2023-09-30T20:15:43;0.77;;;0.70;;
20792;SDS011;10556;-33.662;151.094;2023-09-30T20:20:47;1.63;;;0.83;;
20792;SDS011;10556;-33.662;151.094;2023-09-30T20:25:48;0.90;;;0.60;;
20792;SDS011;10556;-33.662;151.094;2023-09-30T20:30:49;1.17;;;0.60;;
20792;SDS011;10556;-33.662;151.094;2023-09-30T20:35:52;0.60;;;0.50;;
20792;SDS011;10556;-33.662;151.094;2023-09-30T20:40:54;1.30;;;0.90;;
20792;SDS011;10556;-33.662;151.094;2023-09-30T20:45:55;1.40;;;0.60;;
20792;SDS011;10556;-33.662;151.094;2023-09-30T20:50:58;0.63;;;0.63;;
20792;SDS011;10556;-33.662;151.094;2023-09-30T20:56:02;1.87;;;0.83;;
20792;SDS011;10556;-33.662;151.094;2023-09-30T21:01:04;1.07;;;0.70;;
20792;SDS011;10556;-33.662;151.094;2023-09-30T21:06:08;2.73;;;0.90;;
20792;SDS011;10556;-33.662;151.094;2023-09-30T21:11:09;1.67;;;0.80;;
20792;SDS011;10556;-33.662;151.094;2023-09-30T21:16:10;1.13;;;0.60;;
20792;SDS011;10556;-33.662;151.094;2023-09-30T21:21:14;0.80;;;0.70;;
20792;SDS011;10556;-33.662;151.094;2023-09-30T21:26:15;0.70;;;0.70;;
20792;SDS011;10556;-33.662;151.094;2023-09-30T21:31:16;5.00;;;0.80;;
20792;SDS011;10556;-33.662;151.094;2023-09-30T21:36:20;1.87;;;0.83;;
20792;SDS011;10556;-33.662;151.094;2023-09-30T21:41:22;1.10;;;0.97;;
20792;SDS011;10556;-33.662;151.094;2023-09-30T21:46:23;1.07;;;0.80;;
20792;SDS011;10556;-33.662;151.094;2023-09-30T21:51:26;0.70;;;0.60;;
20792;SDS011;10556;-33.662;151.094;2023-09-30T21:56:27;2.97;;;0.73;;
20792;SDS011;10556;-33.662;151.094;2023-09-30T22:01:28;1.67;;;0.70;;
20792;SDS011;10556;-33.662;151.094;2023-09-30T22:06:32;2.47;;;0.70;;
20792;SDS011;10556;-33.662;151.094;2023-09-30T22:11:33;2.07;;;0.63;;
20792;SDS011;10556;-33.662;151.094;2023-09-30T22:16:34;0.90;;;0.50;;
20792;SDS011;10556;-33.662;151.094;2023-09-30T22:21:37;1.00;;;0.70;;
20792;SDS011;10556;-33.662;151.094;2023-09-30T22:26:38;0.70;;;0.60;;
20792;SDS011;10556;-33.662;151.094;2023-09-30T22:31:40;1.03;;;0.60;;
20792;SDS011;10556;-33.662;151.094;2023-09-30T22:36:43;1.13;;;0.70;;
20792;SDS011;10556;-33.662;151.094;2023-09-30T22:41:44;0.80;;;0.70;;
20792;SDS011;10556;-33.662;151.094;2023-09-30T22:46:45;0.90;;;0.67;;
20792;SDS011;10556;-33.662;151.094;2023-09-30T22:51:48;3.10;;;0.70;;
20792;SDS011;10556;-33.662;151.094;2023-09-30T22:56:49;0.63;;;0.60;;
20792;SDS011;10556;-33.662;151.094;2023-09-30T23:01:51;0.90;;;0.60;;
20792;SDS011;10556;-33.662;151.094;2023-09-30T23:06:54;3.90;;;0.90;;
20792;SDS011;10556;-33.662;151.094;2023-09-30T23:11:55;2.20;;;0.73;;
20792;SDS011;10556;-33.662;151.094;2023-09-30T23:16:57;1.00;;;0.73;;
20792;SDS011;10556;-33.662;151.094;2023-09-30T23:22:00;2.30;;;1.00;;
20792;SDS011;10556;-33.662;151.094;2023-09-30T23:27:01;3.60;;;1.30;;
20792;SDS011;10556;-33.662;151.094;2023-09-30T23:32:02;1.27;;;1.15;;
20792;SDS011;10556;-33.662;151.094;2023-09-30T23:37:05;1.83;;;1.17;;
20792;SDS011;10556;-33.662;151.094;2023-09-30T23:42:06;1.85;;;1.15;;
20792;SDS011;10556;-33.662;151.094;2023-09-30T23:47:08;2.97;;;1.08;;
20792;SDS011;10556;-33.662;151.094;2023-09-30T23:52:11;1.75;;;1.20;;
20792;SDS011;10556;-33.662;151.094;2023-09-30T23:57:12;1.42;;;1.20;;
